createdAt,value
2023-04-28T00:01:38.538Z,102097.31
2023-04-28T00:04:05.577Z,102091.00
2023-04-28T00:06:32.375Z,102093.78
2023-04-28T00:08:59.063Z,102088.38
2023-04-28T00:11:25.857Z,102087.50
2023-04-28T00:13:52.552Z,102086.66
2023-04-28T00:16:19.358Z,102085.84
2023-04-28T00:18:46.173Z,102088.75
2023-04-28T00:21:12.899Z,102072.59
2023-04-28T00:23:39.585Z,102068.97
2023-04-28T00:26:06.247Z,102066.25
2023-04-28T00:28:34.749Z,102076.88
2023-04-28T00:31:02.353Z,102075.25
2023-04-28T00:33:29.051Z,102070.91
2023-04-28T00:36:00.741Z,102075.44
2023-04-28T00:38:27.610Z,102068.31
2023-04-28T00:40:54.360Z,102070.94
2023-04-28T00:43:21.151Z,102063.78
2023-04-28T00:45:52.171Z,102062.06
2023-04-28T00:48:19.397Z,102058.34
2023-04-28T00:50:47.852Z,102057.41
2023-04-28T00:53:14.786Z,102058.44
2023-04-28T00:55:41.538Z,102047.75
2023-04-28T00:58:09.545Z,102053.88
2023-04-28T01:00:36.361Z,102044.91
2023-04-28T01:03:03.611Z,102048.38
2023-04-28T01:05:31.857Z,102048.38
2023-04-28T01:07:59.938Z,102047.66
2023-04-28T01:10:26.817Z,102046.84
2023-04-28T01:12:53.719Z,102047.72
2023-04-28T01:15:21.396Z,102050.28
2023-04-28T01:17:48.367Z,102054.81
2023-04-28T01:20:16.137Z,102056.72
2023-04-28T01:22:43.138Z,102062.31
2023-04-28T01:25:09.853Z,102057.06
2023-04-28T01:27:36.571Z,102057.03
2023-04-28T01:30:03.481Z,102060.50
2023-04-28T01:32:30.507Z,102059.56
2023-04-28T01:34:57.193Z,102046.88
2023-04-28T01:37:24.078Z,102048.63
2023-04-28T01:39:50.980Z,102056.69
2023-04-28T01:42:17.633Z,102046.16
2023-04-28T01:44:44.339Z,102050.56
2023-04-28T01:47:11.128Z,102045.25
2023-04-28T01:49:37.759Z,102044.28
2023-04-28T01:52:04.785Z,102036.16
2023-04-28T01:54:31.477Z,102036.97
2023-04-28T01:56:58.140Z,102040.72
2023-04-28T01:59:24.989Z,102034.47
2023-04-28T02:01:51.765Z,102029.03
2023-04-28T02:04:18.707Z,102031.56
2023-04-28T02:06:45.779Z,102024.31
2023-04-28T02:09:12.479Z,102018.00
2023-04-28T02:11:39.187Z,102012.63
2023-04-28T02:14:05.842Z,102003.69
2023-04-28T02:16:33.913Z,102013.63
2023-04-28T02:19:00.717Z,102011.03
2023-04-28T02:21:27.967Z,102009.22
2023-04-28T02:23:54.823Z,102011.88
2023-04-28T02:26:21.542Z,101999.34
2023-04-28T02:28:49.176Z,101994.91
2023-04-28T02:31:16.307Z,102002.97
2023-04-28T02:33:43.097Z,101984.25
2023-04-28T02:36:10.646Z,101989.69
2023-04-28T02:38:37.335Z,101987.97
2023-04-28T02:41:05.593Z,101988.78
2023-04-28T02:43:33.190Z,101982.38
2023-04-28T02:46:00.168Z,101972.41
2023-04-28T02:48:27.243Z,101973.25
2023-04-28T02:50:53.988Z,101967.84
2023-04-28T02:53:21.410Z,101963.75
2023-04-28T02:55:48.320Z,101963.63
2023-04-28T02:58:15.108Z,101959.97
2023-04-28T03:00:41.964Z,101958.16
2023-04-28T03:03:08.869Z,101957.31
2023-04-28T03:05:35.708Z,101956.41
2023-04-28T03:08:02.492Z,101949.44
2023-04-28T03:10:29.189Z,101950.44
2023-04-28T03:12:56.151Z,101945.13
2023-04-28T03:15:22.791Z,101941.56
2023-04-28T03:17:50.214Z,101938.88
2023-04-28T03:20:17.013Z,101935.41
2023-04-28T03:22:43.780Z,101937.22
2023-04-28T03:25:10.582Z,101935.41
2023-04-28T03:27:37.333Z,101933.53
2023-04-28T03:30:04.355Z,101925.53
2023-04-28T03:32:31.142Z,101925.63
2023-04-28T03:34:57.927Z,101929.28
2023-04-28T03:37:24.711Z,101926.84
2023-04-28T03:39:51.462Z,101923.28
2023-04-28T03:42:18.196Z,101918.75
2023-04-28T03:44:47.930Z,101905.31
2023-04-28T03:47:14.680Z,101913.22
2023-04-28T03:49:41.390Z,101902.47
2023-04-28T03:52:08.088Z,101899.78
2023-04-28T03:54:36.449Z,101895.34
2023-04-28T03:57:04.638Z,101890.88
2023-04-28T03:59:31.658Z,101891.81
2023-04-28T04:01:58.589Z,101881.25
2023-04-28T04:04:26.456Z,101883.25
2023-04-28T04:06:53.640Z,101888.47
2023-04-28T04:09:20.482Z,101885.06
2023-04-28T04:11:47.459Z,101887.66
2023-04-28T04:14:14.277Z,101884.13
2023-04-28T04:16:41.439Z,101888.44
2023-04-28T04:19:08.129Z,101873.97
2023-04-28T04:21:34.821Z,101873.09
2023-04-28T04:24:01.709Z,101874.72
2023-04-28T04:26:28.484Z,101862.19
2023-04-28T04:28:55.148Z,101871.34
2023-04-28T04:31:22.776Z,101864.97
2023-04-28T04:33:49.701Z,101866.75
2023-04-28T04:36:16.422Z,101860.44
2023-04-28T04:38:43.132Z,101868.34
2023-04-28T04:41:09.885Z,101865.50
2023-04-28T04:43:36.772Z,101869.09
2023-04-28T04:46:04.223Z,101865.47
2023-04-28T04:48:31.121Z,101861.00
2023-04-28T04:50:57.779Z,101854.69
2023-04-28T04:53:24.625Z,101854.63
2023-04-28T04:55:51.443Z,101858.91
2023-04-28T04:58:18.356Z,101865.91
2023-04-28T05:00:45.172Z,101845.94
2023-04-28T05:03:12.161Z,101849.31
2023-04-28T05:05:39.006Z,101838.22
2023-04-28T05:08:05.996Z,101839.56
2023-04-28T05:10:33.124Z,101834.66
2023-04-28T05:12:59.845Z,101826.16
2023-04-28T05:15:26.519Z,101812.09
2023-04-28T05:17:53.219Z,101806.16
2023-04-28T05:20:20.191Z,101802.97
2023-04-28T05:22:47.012Z,101796.91
2023-04-28T05:25:13.693Z,101785.59
2023-04-28T05:27:41.119Z,101790.38
2023-04-28T05:30:08.799Z,101781.59
2023-04-28T05:32:36.746Z,101778.75
2023-04-28T05:35:03.687Z,101779.41
2023-04-28T05:37:30.608Z,101773.38
2023-04-28T05:39:57.356Z,101763.03
2023-04-28T05:42:31.404Z,101765.53
2023-04-28T05:44:58.075Z,101747.94
2023-04-28T05:47:24.792Z,101760.06
2023-04-28T05:49:51.492Z,101754.84
2023-04-28T05:52:18.239Z,101753.88
2023-04-28T05:54:44.868Z,101762.84
2023-04-28T05:57:11.697Z,101760.47
2023-04-28T05:59:38.532Z,101765.38
2023-04-28T06:02:05.303Z,101769.56
2023-04-28T06:04:32.407Z,101779.84
2023-04-28T06:06:59.521Z,101791.13
2023-04-28T06:09:26.268Z,101797.03
2023-04-28T06:11:54.530Z,101801.13
2023-04-28T06:14:23.057Z,101810.72
2023-04-28T06:16:50.950Z,101803.09
2023-04-28T06:19:19.006Z,101809.88
2023-04-28T06:21:46.463Z,101810.53
2023-04-28T06:24:13.230Z,101814.34
2023-04-28T06:26:40.283Z,101827.03
2023-04-28T06:29:07.046Z,101829.72
2023-04-28T06:31:33.791Z,101822.06
2023-04-28T06:34:00.845Z,101831.22
2023-04-28T06:36:28.281Z,101827.06
2023-04-28T06:38:55.054Z,101827.53
2023-04-28T06:41:22.056Z,101824.50
2023-04-28T06:43:48.971Z,101815.94
2023-04-28T06:46:15.924Z,101808.25
2023-04-28T06:48:42.878Z,101806.25
2023-04-28T06:51:09.493Z,101801.03
2023-04-28T06:53:36.191Z,101797.44
2023-04-28T06:56:03.225Z,101792.22
2023-04-28T06:58:30.007Z,101777.88
2023-04-28T07:00:57.141Z,101765.09
2023-04-28T07:03:24.407Z,101779.31
2023-04-28T07:05:51.210Z,101773.19
2023-04-28T07:08:17.980Z,101782.66
2023-04-28T07:10:44.722Z,101787.28
2023-04-28T07:13:11.705Z,101779.34
2023-04-28T07:15:39.749Z,101766.97
2023-04-28T07:18:06.570Z,101787.56
2023-04-28T07:20:33.375Z,101770.19
2023-04-28T07:23:00.174Z,101764.94
2023-04-28T07:25:33.722Z,101767.47
2023-04-28T07:28:03.861Z,101772.91
2023-04-28T07:30:30.917Z,101761.56
2023-04-28T07:32:58.475Z,101760.03
2023-04-28T07:35:25.677Z,101760.13
2023-04-28T07:37:53.098Z,101750.84
2023-04-28T07:40:20.637Z,101747.00
2023-04-28T07:42:48.041Z,101743.06
2023-04-28T07:45:16.287Z,101747.72
2023-04-28T07:47:43.349Z,101730.63
2023-04-28T07:50:12.176Z,101723.56
2023-04-28T07:52:39.684Z,101715.19
2023-04-28T07:55:07.128Z,101717.50
2023-04-28T07:57:35.030Z,101709.63
2023-04-28T08:00:02.761Z,101700.69
2023-04-28T08:02:30.143Z,101688.19
2023-04-28T08:04:57.410Z,101675.97
2023-04-28T08:07:27.321Z,101676.13
2023-04-28T08:09:55.293Z,101673.00
2023-04-28T08:12:22.116Z,101669.44
2023-04-28T08:14:49.096Z,101655.59
2023-04-28T08:17:27.055Z,101660.00
2023-04-28T08:19:53.926Z,101672.59
2023-04-28T08:22:20.976Z,101647.81
2023-04-28T08:24:47.808Z,101627.03
2023-04-28T08:27:15.033Z,101627.47
2023-04-28T08:29:42.250Z,101625.88
2023-04-28T08:32:10.093Z,101610.59
2023-04-28T08:34:36.878Z,101593.00
2023-04-28T08:37:04.418Z,101559.94
2023-04-28T08:39:31.891Z,101561.94
2023-04-28T08:41:58.711Z,101548.50
2023-04-28T08:44:25.701Z,101554.66
2023-04-28T08:46:56.602Z,101526.63
2023-04-28T08:49:28.268Z,101537.84
2023-04-28T08:52:00.550Z,101503.41
2023-04-28T08:54:32.784Z,101498.94
2023-04-28T08:57:01.247Z,101477.41
2023-04-28T08:59:28.209Z,101455.94
2023-04-28T09:01:55.166Z,101484.22
2023-04-28T09:04:22.469Z,101495.66
2023-04-28T09:06:49.468Z,101510.03
2023-04-28T09:09:32.597Z,101481.69
2023-04-28T09:12:03.018Z,101510.25
2023-04-28T09:14:36.855Z,101514.59
2023-04-28T09:17:10.332Z,101519.00
2023-04-28T09:19:43.075Z,101505.22
2023-04-28T09:24:47.160Z,101517.25
2023-04-28T09:27:15.575Z,101528.38
2023-04-28T09:29:54.127Z,101485.97
2023-04-28T09:32:23.443Z,101460.75
2023-04-28T09:34:52.405Z,101487.53
2023-04-28T09:37:32.084Z,101493.72
2023-04-28T09:40:10.908Z,101463.06
2023-04-28T09:42:42.552Z,101496.31
2023-04-28T09:45:09.734Z,101501.50
2023-04-28T09:47:39.484Z,101495.63
2023-04-28T09:50:11.572Z,101524.81
2023-04-28T09:52:39.454Z,101529.94
2023-04-28T09:55:11.110Z,101491.91
2023-04-28T09:57:39.951Z,101520.47
2023-04-28T10:00:09.230Z,101505.25
2023-04-28T10:05:11.121Z,101493.63
2023-04-28T10:07:39.637Z,101504.31
2023-04-28T10:10:07.872Z,101509.91
2023-04-28T10:12:38.616Z,101501.03
2023-04-28T10:15:07.154Z,101513.00
2023-04-28T10:17:35.779Z,101512.94
2023-04-28T10:20:06.068Z,101499.66
2023-04-28T10:22:35.891Z,101524.28
2023-04-28T10:25:15.625Z,101507.66
2023-04-28T10:27:44.003Z,101509.75
2023-04-28T10:33:14.251Z,101528.44
2023-04-28T10:35:45.945Z,101513.88
2023-04-28T10:38:13.895Z,101492.34
2023-04-28T10:40:48.527Z,101492.59
2023-04-28T10:43:25.703Z,101476.50
2023-04-28T10:45:55.986Z,101450.13
2023-04-28T10:48:27.883Z,101474.66
2023-04-28T10:51:04.216Z,101470.69
2023-04-28T10:53:47.424Z,101486.06
2023-04-28T10:56:22.287Z,101477.59
2023-04-28T10:58:50.897Z,101460.06
2023-04-28T11:01:32.236Z,101434.44
2023-04-28T11:04:15.905Z,101455.56
2023-04-28T11:06:45.847Z,101457.16
2023-04-28T11:09:12.576Z,101450.78
2023-04-28T11:11:40.500Z,101480.47
2023-04-28T11:14:19.493Z,101464.13
2023-04-28T11:17:07.174Z,101447.53
2023-04-28T11:19:46.321Z,101431.88
2023-04-28T11:22:17.382Z,101427.03
2023-04-28T11:25:16.677Z,101426.56
2023-04-28T11:27:43.630Z,101434.22
2023-04-28T11:30:22.367Z,101428.38
2023-04-28T11:32:50.267Z,101440.56
2023-04-28T11:35:17.905Z,101422.34
2023-04-28T11:37:47.850Z,101446.66
2023-04-28T11:40:15.478Z,101420.78
2023-04-28T11:42:50.991Z,101417.78
2023-04-28T11:45:21.820Z,101432.47
2023-04-28T11:47:51.227Z,101432.03
2023-04-28T11:50:37.854Z,101440.50
2023-04-28T11:53:05.583Z,101428.56
2023-04-28T11:55:33.093Z,101406.38
2023-04-28T11:58:28.040Z,101419.19
2023-04-28T12:01:13.539Z,101405.75
2023-04-28T12:03:49.019Z,101403.66
2023-04-28T12:09:21.446Z,101382.03
2023-04-28T12:12:06.001Z,101384.81
2023-04-28T12:14:53.645Z,101384.41
2023-04-28T12:17:28.697Z,101378.06
2023-04-28T12:19:56.874Z,101390.50
2023-04-28T12:22:24.849Z,101357.44
2023-04-28T12:25:04.765Z,101367.63
2023-04-28T12:27:32.138Z,101380.31
2023-04-28T12:29:58.927Z,101356.34
2023-04-28T12:32:45.353Z,101365.47
2023-04-28T12:35:12.254Z,101367.22
2023-04-28T12:37:39.977Z,101366.63
2023-04-28T12:40:07.525Z,101364.22
2023-04-28T12:42:34.657Z,101374.31
2023-04-28T12:45:01.473Z,101389.91
2023-04-28T12:47:28.506Z,101356.13
2023-04-28T12:49:55.286Z,101356.94
2023-04-28T12:52:22.691Z,101351.16
2023-04-28T12:54:49.544Z,101362.00
2023-04-28T12:57:18.717Z,101383.25
2023-04-28T12:59:47.273Z,101382.84
2023-04-28T13:02:15.331Z,101368.34
2023-04-28T13:04:43.226Z,101375.06
2023-04-28T13:07:10.044Z,101341.88
2023-04-28T13:09:38.553Z,101364.84
2023-04-28T13:12:05.606Z,101382.50
2023-04-28T13:14:32.788Z,101382.06
2023-04-28T13:17:01.647Z,101378.03
2023-04-28T13:19:29.684Z,101389.44
2023-04-28T13:21:56.420Z,101387.03
2023-04-28T13:24:23.240Z,101378.44
2023-04-28T13:26:50.077Z,101351.06
2023-04-28T13:29:17.031Z,101353.06
2023-04-28T13:31:43.834Z,101365.72
2023-04-28T13:34:16.004Z,101374.41
2023-04-28T13:36:44.101Z,101347.19
2023-04-28T13:39:13.577Z,101357.63
2023-04-28T13:41:40.780Z,101382.50
2023-04-28T13:44:07.646Z,101373.69
2023-04-28T13:46:34.533Z,101387.97
2023-04-28T13:49:01.794Z,101368.06
2023-04-28T13:51:28.831Z,101383.47
2023-04-28T13:53:55.826Z,101379.00
2023-04-28T13:56:22.547Z,101375.28
2023-04-28T13:58:49.280Z,101370.16
2023-04-28T14:01:16.120Z,101360.84
2023-04-28T14:03:44.345Z,101374.88
2023-04-28T14:06:11.362Z,101371.91
2023-04-28T14:08:38.357Z,101357.63
2023-04-28T14:11:05.185Z,101363.09
2023-04-28T14:13:31.959Z,101358.25
2023-04-28T14:15:59.820Z,101361.09
2023-04-28T14:18:27.529Z,101355.88
2023-04-28T14:20:55.046Z,101360.97
2023-04-28T14:23:22.768Z,101350.16
2023-04-28T14:25:50.349Z,101356.06
2023-04-28T14:28:17.510Z,101349.91
2023-04-28T14:30:44.409Z,101346.31
2023-04-28T14:33:11.419Z,101331.28
2023-04-28T14:35:38.233Z,101328.41
2023-04-28T14:38:04.875Z,101310.91
2023-04-28T14:40:32.070Z,101326.66
2023-04-28T14:42:58.825Z,101338.34
2023-04-28T14:45:25.848Z,101340.59
2023-04-28T14:47:53.050Z,101394.88
2023-04-28T14:50:19.793Z,101414.09
2023-04-28T14:52:46.491Z,101423.44
2023-04-28T14:55:13.723Z,101439.09
2023-04-28T14:57:40.581Z,101426.69
2023-04-28T15:00:08.122Z,101420.28
2023-04-28T15:02:36.269Z,101420.66
2023-04-28T15:05:03.559Z,101404.53
2023-04-28T15:07:33.088Z,101413.13
2023-04-28T15:10:00.092Z,101416.16
2023-04-28T15:12:27.082Z,101411.63
2023-04-28T15:14:54.059Z,101414.19
2023-04-28T15:17:21.521Z,101413.88
2023-04-28T15:19:48.315Z,101403.81
2023-04-28T15:22:15.587Z,101403.06
2023-04-28T15:24:42.322Z,101392.81
2023-04-28T15:27:09.135Z,101389.69
2023-04-28T15:29:35.837Z,101377.25
2023-04-28T15:32:02.631Z,101378.00
2023-04-28T15:34:29.420Z,101370.47
2023-04-28T15:36:56.699Z,101371.03
2023-04-28T15:39:25.100Z,101379.41
2023-04-28T15:41:53.002Z,101371.13
2023-04-28T15:44:19.933Z,101361.78
2023-04-28T15:46:46.730Z,101370.91
2023-04-28T15:49:13.848Z,101369.28
2023-04-28T15:51:40.534Z,101376.69
2023-04-28T15:54:07.178Z,101374.59
2023-04-28T15:56:34.150Z,101372.22
2023-04-28T15:59:00.788Z,101375.72
2023-04-28T16:01:28.456Z,101384.53
2023-04-28T16:03:55.315Z,101381.63
2023-04-28T16:06:22.145Z,101372.47
2023-04-28T16:08:48.896Z,101368.97
2023-04-28T16:11:19.378Z,101365.56
2023-04-28T16:13:46.054Z,101363.38
2023-04-28T16:16:12.818Z,101371.56
2023-04-28T16:18:39.638Z,101360.44
2023-04-28T16:21:06.523Z,101369.06
2023-04-28T16:23:33.407Z,101362.19
2023-04-28T16:26:00.206Z,101365.56
2023-04-28T16:28:27.120Z,101366.69
2023-04-28T16:30:54.004Z,101361.31
2023-04-28T16:33:20.801Z,101367.00
2023-04-28T16:35:54.920Z,101367.78
2023-04-28T16:38:22.162Z,101375.72
2023-04-28T16:40:49.465Z,101373.97
2023-04-28T16:43:16.565Z,101369.59
2023-04-28T16:45:43.766Z,101367.56
2023-04-28T16:48:11.013Z,101371.25
2023-04-28T16:50:40.798Z,101371.47
2023-04-28T16:53:08.184Z,101372.53
2023-04-28T16:55:39.173Z,101363.75
2023-04-28T16:58:06.393Z,101360.66
2023-04-28T17:00:33.263Z,101356.84
2023-04-28T17:03:00.102Z,101356.19
2023-04-28T17:05:26.938Z,101350.66
2023-04-28T17:07:55.114Z,101359.75
2023-04-28T17:10:22.760Z,101359.22
2023-04-28T17:12:49.515Z,101380.16
2023-04-28T17:15:19.506Z,101382.28
2023-04-28T17:17:49.858Z,101374.66
2023-04-28T17:20:18.220Z,101368.59
2023-04-28T17:22:45.040Z,101378.16
2023-04-28T17:25:12.437Z,101373.59
2023-04-28T17:27:39.449Z,101374.00
2023-04-28T17:30:10.588Z,101374.84
2023-04-28T17:32:38.016Z,101380.38
2023-04-28T17:35:05.420Z,101372.22
2023-04-28T17:37:34.196Z,101376.00
2023-04-28T17:40:02.012Z,101374.66
2023-04-28T17:42:31.459Z,101372.84
2023-04-28T17:44:58.157Z,101375.94
2023-04-28T17:47:25.016Z,101385.06
2023-04-28T17:49:52.257Z,101378.91
2023-04-28T17:52:19.046Z,101379.47
2023-04-28T17:54:45.814Z,101379.78
2023-04-28T17:57:13.221Z,101388.31
2023-04-28T17:59:40.692Z,101387.34
2023-04-28T18:02:11.559Z,101388.31
2023-04-28T18:04:38.477Z,101392.66
2023-04-28T18:07:07.798Z,101396.66
2023-04-28T18:09:34.545Z,101403.16
2023-04-28T18:12:03.134Z,101405.09
2023-04-28T18:14:34.014Z,101420.41
2023-04-28T18:17:01.112Z,101419.81
2023-04-28T18:19:30.211Z,101418.28
2023-04-28T18:21:57.162Z,101416.97
2023-04-28T18:24:25.945Z,101414.25
2023-04-28T18:26:54.083Z,101420.06
2023-04-28T18:29:20.851Z,101423.31
2023-04-28T18:31:47.743Z,101414.66
2023-04-28T18:34:14.487Z,101415.97
2023-04-28T18:36:41.205Z,101412.06
2023-04-28T18:39:08.988Z,101413.38
2023-04-28T18:41:36.584Z,101415.97
2023-04-28T18:44:03.484Z,101416.00
2023-04-28T18:46:31.088Z,101420.41
2023-04-28T18:48:58.040Z,101417.09
2023-04-28T18:51:24.885Z,101423.22
2023-04-28T18:53:51.642Z,101420.56
2023-04-28T18:56:18.466Z,101418.84
2023-04-28T18:58:47.219Z,101419.91
2023-04-28T19:01:15.273Z,101418.22
2023-04-28T19:03:42.444Z,101419.78
2023-04-28T19:06:10.810Z,101418.00
2023-04-28T19:08:42.800Z,101416.78
2023-04-28T19:11:09.849Z,101413.16
2023-04-28T19:13:37.507Z,101418.66
2023-04-28T19:16:05.259Z,101406.41
2023-04-28T19:18:33.213Z,101408.94
2023-04-28T19:21:01.405Z,101403.72
2023-04-28T19:23:29.104Z,101401.13
2023-04-28T19:25:57.025Z,101406.81
2023-04-28T19:28:26.054Z,101404.38
2023-04-28T19:30:56.586Z,101406.81
2023-04-28T19:33:27.127Z,101405.34
2023-04-28T19:35:54.822Z,101397.44
2023-04-28T19:38:25.435Z,101393.16
2023-04-28T19:41:01.539Z,101397.63
2023-04-28T19:43:28.310Z,101395.34
2023-04-28T19:45:55.102Z,101398.41
2023-04-28T19:48:21.999Z,101391.13
2023-04-28T19:50:48.824Z,101387.94
2023-04-28T19:53:15.565Z,101388.97
2023-04-28T19:55:42.304Z,101381.56
2023-04-28T19:58:10.554Z,101378.41
2023-04-28T20:00:37.326Z,101378.47
2023-04-28T20:03:04.142Z,101377.34
2023-04-28T20:05:31.381Z,101372.38
2023-04-28T20:07:58.131Z,101379.56
2023-04-28T20:10:25.080Z,101368.53
2023-04-28T20:12:53.725Z,101363.91
2023-04-28T20:15:20.772Z,101359.78
2023-04-28T20:17:47.650Z,101363.91
2023-04-28T20:20:14.414Z,101358.53
2023-04-28T20:22:41.318Z,101360.53
2023-04-28T20:25:10.505Z,101346.25
2023-04-28T20:27:37.509Z,101350.19
2023-04-28T20:30:04.947Z,101361.31
2023-04-28T20:32:31.998Z,101356.25
2023-04-28T20:34:59.011Z,101341.44
2023-04-28T20:37:26.563Z,101342.16
2023-04-28T20:39:53.658Z,101345.72
2023-04-28T20:42:20.557Z,101347.81
2023-04-28T20:44:47.219Z,101339.53
2023-04-28T20:47:14.087Z,101328.19
2023-04-28T20:49:41.879Z,101322.75
2023-04-28T20:52:09.111Z,101322.06
2023-04-28T20:54:36.485Z,101314.63
2023-04-28T20:57:04.575Z,101313.75
2023-04-28T20:59:32.774Z,101309.81
2023-04-28T21:02:00.049Z,101307.31
2023-04-28T21:04:28.606Z,101307.31
2023-04-28T21:06:55.675Z,101306.19
2023-04-28T21:09:25.087Z,101308.28
2023-04-28T21:11:53.766Z,101296.03
2023-04-28T21:14:21.746Z,101301.88
2023-04-28T21:16:48.477Z,101304.50
2023-04-28T21:19:15.474Z,101290.44
2023-04-28T21:21:42.146Z,101295.44
2023-04-28T21:24:10.208Z,101304.06
2023-04-28T21:26:37.065Z,101294.75
2023-04-28T21:29:03.753Z,101293.25
2023-04-28T21:31:31.303Z,101278.66
2023-04-28T21:33:58.303Z,101286.09
2023-04-28T21:36:25.071Z,101282.97
2023-04-28T21:38:51.886Z,101272.97
2023-04-28T21:41:18.684Z,101279.47
2023-04-28T21:43:45.319Z,101276.91
2023-04-28T21:46:13.083Z,101271.06
2023-04-28T21:48:39.995Z,101277.53
2023-04-28T21:51:06.670Z,101278.56
2023-04-28T21:53:33.583Z,101270.00
2023-04-28T21:56:00.388Z,101266.34
2023-04-28T21:58:27.159Z,101277.50
2023-04-28T22:00:55.238Z,101274.75
2023-04-28T22:03:22.412Z,101268.97
2023-04-28T22:05:49.324Z,101266.44
2023-04-28T22:08:17.070Z,101270.97
2023-04-28T22:10:45.481Z,101265.13
2023-04-28T22:13:13.031Z,101268.97
2023-04-28T22:15:39.869Z,101267.47
2023-04-28T22:18:08.011Z,101268.09
2023-04-28T22:20:34.822Z,101266.34
2023-04-28T22:23:01.532Z,101269.16
2023-04-28T22:25:28.259Z,101273.88
2023-04-28T22:27:54.953Z,101276.22
2023-04-28T22:30:24.354Z,101279.25
2023-04-28T22:32:52.466Z,101271.56
2023-04-28T22:35:19.640Z,101279.19
2023-04-28T22:37:46.321Z,101284.78
2023-04-28T22:40:13.283Z,101282.84
2023-04-28T22:42:41.824Z,101275.75
2023-04-28T22:45:10.164Z,101271.41
2023-04-28T22:47:43.557Z,101262.06
2023-04-28T22:50:11.501Z,101270.00
2023-04-28T22:52:38.620Z,101271.75
2023-04-28T22:55:06.453Z,101278.41
2023-04-28T22:57:33.458Z,101275.25
2023-04-28T23:00:00.252Z,101279.59
2023-04-28T23:02:27.101Z,101280.13
2023-04-28T23:04:54.066Z,101267.81
2023-04-28T23:07:20.840Z,101265.28
2023-04-28T23:09:47.549Z,101280.31
2023-04-28T23:12:14.266Z,101278.22
2023-04-28T23:14:40.909Z,101277.22
2023-04-28T23:17:07.648Z,101267.69
2023-04-28T23:19:39.249Z,101270.78
2023-04-28T23:22:07.710Z,101265.13
2023-04-28T23:24:36.716Z,101261.09
2023-04-28T23:27:03.699Z,101261.19
2023-04-28T23:29:30.460Z,101271.56
2023-04-28T23:31:57.259Z,101270.53
2023-04-28T23:34:24.890Z,101268.44
2023-04-28T23:36:51.782Z,101279.91
2023-04-28T23:39:18.583Z,101269.53
2023-04-28T23:41:45.326Z,101268.94
2023-04-28T23:44:12.030Z,101264.56
2023-04-28T23:46:38.809Z,101268.03
2023-04-28T23:49:05.582Z,101270.50
2023-04-28T23:51:32.404Z,101273.59
2023-04-28T23:53:59.429Z,101271.44
2023-04-28T23:56:26.858Z,101261.22
2023-04-28T23:58:54.154Z,101265.75
